Time,TemperatureF,DewpointF,PressureIn,WindDirection,WindDirectionDegrees,WindSpeedMPH,WindSpeedGustMPH,Humidity,HourlyPrecipIn,Conditions,Clouds,dailyrainin,SoftwareType,DateUTC
2013-04-19 00:05:00,56.2,54.2,30.06,SSE,162,2.0,5.0,93,0.00,,,0.00,Wunderground v.1.15,2013-04-19 04:05:00,
2013-04-19 00:10:00,56.0,54.0,30.06,South,171,2.0,2.0,93,0.00,,,0.00,Wunderground v.1.15,2013-04-19 04:10:00,
2013-04-19 00:15:00,56.0,54.0,30.06,South,169,2.0,5.0,93,0.00,,,0.00,Wunderground v.1.15,2013-04-19 04:15:00,
2013-04-19 00:20:00,56.0,54.0,30.06,SSE,162,2.0,5.0,93,0.00,,,0.00,Wunderground v.1.15,2013-04-19 04:20:00,
2013-04-19 00:25:00,56.0,54.0,30.06,SSE,156,1.0,5.0,93,0.00,,,0.00,Wunderground v.1.15,2013-04-19 04:25:00,
2013-04-19 00:35:00,56.0,54.0,30.05,SSE,161,2.0,5.0,93,0.00,,,0.00,Wunderground v.1.15,2013-04-19 04:35:00,
2013-04-19 00:40:00,55.9,53.9,30.05,SSE,161,2.0,2.0,93,0.00,,,0.00,Wunderground v.1.15,2013-04-19 04:40:00,
2013-04-19 00:45:00,55.9,53.9,30.05,SSE,168,2.0,5.0,93,0.00,,,0.00,Wunderground v.1.15,2013-04-19 04:45:00,
2013-04-19 00:50:00,55.9,54.2,30.04,South,184,2.0,5.0,94,0.00,,,0.00,Wunderground v.1.15,2013-04-19 04:50:00,
2013-04-19 00:55:00,55.9,54.2,30.04,SSE,149,2.0,5.0,94,0.00,,,0.00,Wunderground v.1.15,2013-04-19 04:55:00,
2013-04-19 01:00:00,55.9,54.2,30.04,South,169,2.0,5.0,94,0.00,,,0.00,Wunderground v.1.15,2013-04-19 05:00:00,
2013-04-19 01:05:00,55.7,54.0,30.03,SW,219,2.0,5.0,94,0.00,,,0.00,Wunderground v.1.15,2013-04-19 05:05:00,
2013-04-19 01:10:00,55.9,54.2,30.03,SW,218,2.0,5.0,94,0.00,,,0.00,Wunderground v.1.15,2013-04-19 05:10:00,
2013-04-19 01:15:00,55.9,54.2,30.03,SSE,168,1.0,5.0,94,0.00,,,0.00,Wunderground v.1.15,2013-04-19 05:15:00,
2013-04-19 01:20:00,55.9,54.2,30.03,SSE,168,1.0,1.0,94,0.00,,,0.00,Wunderground v.1.15,2013-04-19 05:20:00,
2013-04-19 01:25:00,55.9,54.2,30.03,South,170,0.0,2.0,94,0.00,,,0.00,Wunderground v.1.15,2013-04-19 05:25:00,
2013-04-19 01:30:00,55.9,54.5,30.03,South,171,0.0,5.0,95,0.00,,,0.00,Wunderground v.1.15,2013-04-19 05:30:00,
2013-04-19 01:35:00,55.9,54.5,30.02,South,171,1.0,5.0,95,0.00,,,0.00,Wunderground v.1.15,2013-04-19 05:35:00,
2013-04-19 01:45:00,55.9,54.5,30.02,South,171,1.0,5.0,95,0.00,,,0.00,Wunderground v.1.15,2013-04-19 05:45:00,
2013-04-19 01:50:00,56.0,54.6,30.02,South,171,1.0,1.0,95,0.00,,,0.00,Wunderground v.1.15,2013-04-19 05:50:00,
2013-04-19 01:55:00,55.9,54.5,30.02,South,171,0.0,5.0,95,0.00,,,0.00,Wunderground v.1.15,2013-04-19 05:55:00,
2013-04-19 02:00:00,55.9,54.5,30.02,South,171,0.0,5.0,95,0.00,,,0.00,Wunderground v.1.15,2013-04-19 06:00:00,
2013-04-19 02:05:00,56.0,54.6,30.02,South,171,0.0,5.0,95,0.00,,,0.00,Wunderground v.1.15,2013-04-19 06:05:00,
2013-04-19 02:15:00,56.0,54.6,30.02,South,171,0.0,5.0,95,0.00,,,0.00,Wunderground v.1.15,2013-04-19 06:15:00,
2013-04-19 02:20:00,56.0,54.6,30.01,South,171,0.0,5.0,95,0.00,,,0.00,Wunderground v.1.15,2013-04-19 06:20:00,
2013-04-19 02:30:00,56.0,54.6,30.01,South,171,0.0,5.0,95,0.00,,,0.00,Wunderground v.1.15,2013-04-19 06:30:00,
2013-04-19 02:35:00,56.2,54.8,30.00,South,171,0.0,5.0,95,0.00,,,0.00,Wunderground v.1.15,2013-04-19 06:35:00,
2013-04-19 02:40:00,56.2,54.8,30.00,South,171,0.0,5.0,95,0.00,,,0.00,Wunderground v.1.15,2013-04-19 06:40:00,
2013-04-19 02:50:00,56.2,54.8,29.99,South,171,0.0,5.0,95,0.00,,,0.00,Wunderground v.1.15,2013-04-19 06:50:00,
2013-04-19 02:55:00,56.2,54.8,29.99,South,171,0.0,5.0,95,0.00,,,0.00,Wunderground v.1.15,2013-04-19 06:55:00,
2013-04-19 03:00:00,56.2,54.8,29.99,South,171,0.0,5.0,95,0.00,,,0.00,Wunderground v.1.15,2013-04-19 07:00:00,
2013-04-19 03:05:00,56.3,54.9,29.99,South,171,0.0,5.0,95,0.00,,,0.00,Wunderground v.1.15,2013-04-19 07:05:00,
2013-04-19 03:10:00,56.2,54.8,29.99,South,171,0.0,5.0,95,0.00,,,0.00,Wunderground v.1.15,2013-04-19 07:10:00,
2013-04-19 03:15:00,56.2,54.8,29.99,South,171,0.0,5.0,95,0.00,,,0.00,Wunderground v.1.15,2013-04-19 07:15:00,
2013-04-19 03:20:00,56.2,54.8,29.98,South,171,0.0,5.0,95,0.00,,,0.00,Wunderground v.1.15,2013-04-19 07:20:00,
2013-04-19 03:25:00,56.3,54.9,29.98,South,171,0.0,5.0,95,0.00,,,0.00,Wunderground v.1.15,2013-04-19 07:25:00,
2013-04-19 03:30:00,56.5,55.1,29.98,South,171,1.0,5.0,95,0.00,,,0.00,Wunderground v.1.15,2013-04-19 07:30:00,
2013-04-19 03:40:00,56.9,55.5,29.97,SSE,159,2.0,5.0,95,0.00,,,0.00,Wunderground v.1.15,2013-04-19 07:40:00,
2013-04-19 03:45:00,57.0,55.6,29.97,South,169,3.0,5.0,95,0.00,,,0.00,Wunderground v.1.15,2013-04-19 07:45:00,
2013-04-19 03:50:00,57.0,55.6,29.95,SW,225,3.0,3.0,95,0.00,,,0.00,Wunderground v.1.15,2013-04-19 07:50:00,
2013-04-19 04:00:00,57.3,55.9,29.95,SW,217,3.0,3.0,95,0.00,,,0.00,Wunderground v.1.15,2013-04-19 08:00:00,
2013-04-19 04:05:00,57.2,55.8,29.95,South,174,3.0,5.0,95,0.00,,,0.00,Wunderground v.1.15,2013-04-19 08:05:00,
2013-04-19 04:10:00,57.2,55.5,29.95,South,172,2.0,2.0,94,0.00,,,0.00,Wunderground v.1.15,2013-04-19 08:10:00,
2013-04-19 04:15:00,57.0,55.3,29.95,SW,222,1.0,3.0,94,0.00,,,0.00,Wunderground v.1.15,2013-04-19 08:15:00,
2013-04-19 04:20:00,56.9,55.2,29.95,SW,215,1.0,5.0,94,0.00,,,0.00,Wunderground v.1.15,2013-04-19 08:20:00,
2013-04-19 04:30:00,57.0,55.3,29.95,SSW,213,1.0,5.0,94,0.00,,,0.00,Wunderground v.1.15,2013-04-19 08:30:00,
2013-04-19 04:35:00,57.0,55.3,29.95,SSW,207,2.0,5.0,94,0.00,,,0.00,Wunderground v.1.15,2013-04-19 08:35:00,
2013-04-19 04:40:00,57.0,55.3,29.95,South,189,2.0,5.0,94,0.00,,,0.00,Wunderground v.1.15,2013-04-19 08:40:00,
2013-04-19 04:50:00,57.0,55.3,29.95,SSE,159,1.0,5.0,94,0.00,,,0.00,Wunderground v.1.15,2013-04-19 08:50:00,
2013-04-19 04:55:00,57.2,55.5,29.95,SSE,159,1.0,5.0,94,0.00,,,0.00,Wunderground v.1.15,2013-04-19 08:55:00,
2013-04-19 05:05:00,57.3,55.6,29.94,SSE,159,1.0,5.0,94,0.00,,,0.00,Wunderground v.1.15,2013-04-19 09:05:00,
2013-04-19 05:10:00,57.3,55.6,29.94,SSE,160,0.0,5.0,94,0.00,,,0.00,Wunderground v.1.15,2013-04-19 09:10:00,
2013-04-19 05:15:00,57.5,55.8,29.94,SSE,160,0.0,5.0,94,0.00,,,0.00,Wunderground v.1.15,2013-04-19 09:15:00,
2013-04-19 05:20:00,57.6,55.6,29.94,SSE,159,0.0,5.0,93,0.00,,,0.00,Wunderground v.1.15,2013-04-19 09:20:00,
2013-04-19 05:25:00,57.8,55.8,29.94,South,182,1.0,5.0,93,0.00,,,0.00,Wunderground v.1.15,2013-04-19 09:25:00,
2013-04-19 05:30:00,58.0,56.0,29.94,SW,219,1.0,1.0,93,0.00,,,0.00,Wunderground v.1.15,2013-04-19 09:30:00,
2013-04-19 05:40:00,58.1,56.1,29.93,South,187,0.0,5.0,93,0.00,,,0.00,Wunderground v.1.15,2013-04-19 09:40:00,
2013-04-19 05:45:00,58.1,56.1,29.93,South,187,1.0,5.0,93,0.00,,,0.00,Wunderground v.1.15,2013-04-19 09:45:00,
2013-04-19 05:50:00,58.4,56.4,29.93,South,187,1.0,5.0,93,0.00,,,0.00,Wunderground v.1.15,2013-04-19 09:50:00,
2013-04-19 05:55:00,58.6,56.6,29.93,South,187,0.0,5.0,93,0.00,,,0.00,Wunderground v.1.15,2013-04-19 09:55:00,
2013-04-19 06:00:00,58.9,56.9,29.93,SW,223,1.0,5.0,93,0.00,,,0.00,Wunderground v.1.15,2013-04-19 10:00:00,
2013-04-19 06:05:00,59.0,57.0,29.92,SW,223,1.0,5.0,93,0.00,,,0.00,Wunderground v.1.15,2013-04-19 10:05:00,
2013-04-19 06:10:00,59.2,57.2,29.92,WSW,243,1.0,5.0,93,0.00,,,0.00,Wunderground v.1.15,2013-04-19 10:10:00,
2013-04-19 06:15:00,59.3,57.3,29.92,SSW,200,2.0,5.0,93,0.00,,,0.00,Wunderground v.1.15,2013-04-19 10:15:00,
2013-04-19 06:25:00,59.6,57.6,29.92,SW,227,2.0,5.0,93,0.00,,,0.00,Wunderground v.1.15,2013-04-19 10:25:00,
2013-04-19 06:30:00,59.6,57.3,29.92,SSW,198,2.0,5.0,92,0.00,,,0.00,Wunderground v.1.15,2013-04-19 10:30:00,
2013-04-19 06:35:00,59.8,57.5,29.92,SE,146,2.0,5.0,92,0.00,,,0.00,Wunderground v.1.15,2013-04-19 10:35:00,
2013-04-19 06:45:00,59.9,57.6,29.92,SSW,209,2.0,5.0,92,0.00,,,0.00,Wunderground v.1.15,2013-04-19 10:45:00,
2013-04-19 06:50:00,60.1,57.8,29.92,South,175,2.0,2.0,92,0.00,,,0.00,Wunderground v.1.15,2013-04-19 10:50:00,
2013-04-19 06:55:00,60.1,57.5,29.92,South,170,2.0,3.0,91,0.00,,,0.00,Wunderground v.1.15,2013-04-19 10:55:00,
2013-04-19 07:00:00,60.1,57.5,29.92,SSW,200,2.0,2.0,91,0.00,,,0.00,Wunderground v.1.15,2013-04-19 11:00:00,
2013-04-19 07:05:00,60.1,57.5,29.93,SSW,194,2.0,5.0,91,0.00,,,0.00,Wunderground v.1.15,2013-04-19 11:05:00,
2013-04-19 07:10:00,60.1,57.5,29.93,WSW,248,2.0,5.0,91,0.00,,,0.00,Wunderground v.1.15,2013-04-19 11:10:00,
2013-04-19 07:20:00,59.9,57.0,29.93,SSW,193,2.0,5.0,90,0.00,,,0.00,Wunderground v.1.15,2013-04-19 11:20:00,
2013-04-19 07:25:00,59.9,57.0,29.93,SW,215,2.0,5.0,90,0.00,,,0.00,Wunderground v.1.15,2013-04-19 11:25:00,
2013-04-19 07:35:00,60.1,57.2,29.93,SSE,166,1.0,5.0,90,0.00,,,0.00,Wunderground v.1.15,2013-04-19 11:35:00,
2013-04-19 07:40:00,60.2,57.3,29.93,SW,226,1.0,5.0,90,0.00,,,0.00,Wunderground v.1.15,2013-04-19 11:40:00,
2013-04-19 07:45:00,60.5,57.6,29.93,South,178,2.0,5.0,90,0.00,,,0.00,Wunderground v.1.15,2013-04-19 11:45:00,
2013-04-19 07:55:00,61.3,58.3,29.92,SW,215,3.0,5.0,90,0.00,,,0.00,Wunderground v.1.15,2013-04-19 11:55:00,
2013-04-19 08:00:00,61.6,58.6,29.92,SSE,156,3.0,3.0,90,0.00,,,0.00,Wunderground v.1.15,2013-04-19 12:00:00,
2013-04-19 08:05:00,62.1,58.8,29.92,SSW,212,3.0,5.0,89,0.00,,,0.00,Wunderground v.1.15,2013-04-19 12:05:00,
2013-04-19 08:10:00,62.0,58.1,29.92,SW,222,2.0,2.0,87,0.00,,,0.00,Wunderground v.1.15,2013-04-19 12:10:00,
2013-04-19 08:15:00,62.0,58.1,29.92,SW,222,2.0,5.0,87,0.00,,,0.00,Wunderground v.1.15,2013-04-19 12:15:00,
2013-04-19 08:25:00,62.0,58.1,29.91,SW,229,2.0,2.0,87,0.00,,,0.00,Wunderground v.1.15,2013-04-19 12:25:00,
2013-04-19 08:30:00,62.3,58.4,29.91,SSE,155,2.0,5.0,87,0.00,,,0.00,Wunderground v.1.15,2013-04-19 12:30:00,
2013-04-19 08:40:00,62.4,58.2,29.91,SSW,204,3.0,3.0,86,0.00,,,0.00,Wunderground v.1.15,2013-04-19 12:40:00,
2013-04-19 08:45:00,62.4,58.2,29.91,SSE,157,2.0,4.0,86,0.00,,,0.00,Wunderground v.1.15,2013-04-19 12:45:00,
2013-04-19 08:50:00,62.6,58.4,29.91,SSE,157,2.0,2.0,86,0.00,,,0.00,Wunderground v.1.15,2013-04-19 12:50:00,
2013-04-19 09:00:00,63.2,58.6,29.91,SW,223,3.0,5.0,85,0.00,,,0.00,Wunderground v.1.15,2013-04-19 13:00:00,
2013-04-19 09:05:00,63.7,58.8,29.90,SSW,196,3.0,5.0,84,0.00,,,0.00,Wunderground v.1.15,2013-04-19 13:05:00,
2013-04-19 09:10:00,64.2,59.3,29.90,SSW,197,3.0,5.0,84,0.00,,,0.00,Wunderground v.1.15,2013-04-19 13:10:00,
2013-04-19 09:15:00,64.7,59.4,29.90,SE,146,3.0,5.0,83,0.00,,,0.00,Wunderground v.1.15,2013-04-19 13:15:00,
2013-04-19 09:20:00,64.8,59.2,29.89,SW,226,4.0,4.0,82,0.00,,,0.00,Wunderground v.1.15,2013-04-19 13:20:00,
2013-04-19 09:25:00,65.5,59.5,29.89,SSE,160,3.0,5.0,81,0.00,,,0.00,Wunderground v.1.15,2013-04-19 13:25:00,
2013-04-19 09:35:00,65.8,59.5,29.89,SSW,193,4.0,5.0,80,0.00,,,0.00,Wunderground v.1.15,2013-04-19 13:35:00,
2013-04-19 09:40:00,65.6,58.9,29.89,SSE,167,4.0,5.0,79,0.00,,,0.00,Wunderground v.1.15,2013-04-19 13:40:00,
2013-04-19 09:50:00,65.5,59.2,29.88,SSE,168,3.0,5.0,80,0.00,,,0.00,Wunderground v.1.15,2013-04-19 13:50:00,
2013-04-19 09:55:00,66.1,59.4,29.88,SSW,203,3.0,5.0,79,0.00,,,0.00,Wunderground v.1.15,2013-04-19 13:55:00,
2013-04-19 10:00:00,66.9,59.8,29.88,SSE,163,3.0,3.0,78,0.00,,,0.00,Wunderground v.1.15,2013-04-19 14:00:00,
2013-04-19 10:05:00,68.1,59.9,29.87,SSE,161,3.0,4.0,75,0.00,,,0.00,Wunderground v.1.15,2013-04-19 14:05:00,
2013-04-19 10:10:00,68.9,59.5,29.87,SSW,199,4.0,6.0,72,0.00,,,0.00,Wunderground v.1.15,2013-04-19 14:10:00,
2013-04-19 10:15:00,68.8,59.8,29.87,SE,130,4.0,6.0,73,0.00,,,0.00,Wunderground v.1.15,2013-04-19 14:15:00,
2013-04-19 10:20:00,68.1,59.1,29.86,South,172,4.0,5.0,73,0.00,,,0.00,Wunderground v.1.15,2013-04-19 14:20:00,
2013-04-19 10:25:00,67.6,59.4,29.86,SSE,159,4.0,5.0,75,0.00,,,0.00,Wunderground v.1.15,2013-04-19 14:25:00,
2013-04-19 10:30:00,66.9,58.7,29.86,South,183,3.0,5.0,75,0.00,,,0.00,Wunderground v.1.15,2013-04-19 14:30:00,
2013-04-19 10:40:00,66.3,58.9,29.86,SSE,157,4.0,5.0,77,0.00,,,0.00,Wunderground v.1.15,2013-04-19 14:40:00,
2013-04-19 10:45:00,66.0,58.9,29.86,South,185,3.0,5.0,78,0.00,,,0.00,Wunderground v.1.15,2013-04-19 14:45:00,
2013-04-19 10:50:00,65.8,58.7,29.85,SE,140,4.0,5.0,78,0.00,,,0.00,Wunderground v.1.15,2013-04-19 14:50:00,
2013-04-19 10:55:00,66.1,59.0,29.85,WSW,237,3.0,5.0,78,0.00,,,0.00,Wunderground v.1.15,2013-04-19 14:55:00,
2013-04-19 11:00:00,67.3,59.8,29.85,SSE,163,3.0,3.0,77,0.00,,,0.00,Wunderground v.1.15,2013-04-19 15:00:00,
2013-04-19 11:05:00,67.8,59.6,29.85,South,178,3.0,4.0,75,0.00,,,0.00,Wunderground v.1.15,2013-04-19 15:05:00,
2013-04-19 11:15:00,70.1,59.5,29.85,SW,221,3.0,5.0,69,0.00,,,0.00,Wunderground v.1.15,2013-04-19 15:15:00,
2013-04-19 11:20:00,70.9,60.2,29.83,South,172,3.0,5.0,69,0.00,,,0.00,Wunderground v.1.15,2013-04-19 15:20:00,
2013-04-19 11:25:00,70.3,59.2,29.83,SSE,163,4.0,7.0,68,0.00,,,0.00,Wunderground v.1.15,2013-04-19 15:25:00,
2013-04-19 11:30:00,69.8,59.6,29.83,South,179,4.0,4.0,70,0.00,,,0.00,Wunderground v.1.15,2013-04-19 15:30:00,
2013-04-19 11:35:00,70.3,59.6,29.83,SSE,150,4.0,5.0,69,0.00,,,0.00,Wunderground v.1.15,2013-04-19 15:35:00,
2013-04-19 11:40:00,69.9,59.7,29.83,SW,233,3.0,3.0,70,0.00,,,0.00,Wunderground v.1.15,2013-04-19 15:40:00,
2013-04-19 11:50:00,70.1,59.5,29.82,SSE,160,3.0,5.0,69,0.00,,,0.00,Wunderground v.1.15,2013-04-19 15:50:00,
2013-04-19 11:55:00,69.8,59.6,29.82,SW,223,3.0,5.0,70,0.00,,,0.00,Wunderground v.1.15,2013-04-19 15:55:00,
2013-04-19 12:00:00,69.4,59.6,29.82,SE,136,3.0,5.0,71,0.00,,,0.00,Wunderground v.1.15,2013-04-19 16:00:00,
2013-04-19 12:05:00,69.3,59.5,29.82,SSE,157,3.0,5.0,71,0.00,,,0.00,Wunderground v.1.15,2013-04-19 16:05:00,
2013-04-19 12:10:00,69.4,59.6,29.82,SSW,198,3.0,8.0,71,0.00,,,0.00,Wunderground v.1.15,2013-04-19 16:10:00,
2013-04-19 12:20:00,71.1,60.4,29.80,SE,142,4.0,4.0,69,0.00,,,0.00,Wunderground v.1.15,2013-04-19 16:20:00,
2013-04-19 12:25:00,71.3,59.8,29.80,SSW,205,3.0,5.0,67,0.00,,,0.00,Wunderground v.1.15,2013-04-19 16:25:00,
2013-04-19 12:35:00,69.8,59.2,29.80,East,95,5.0,11.0,69,0.00,,,0.00,Wunderground v.1.15,2013-04-19 16:35:00,
2013-04-19 12:40:00,69.8,59.6,29.80,SSW,200,5.0,5.0,70,0.00,,,0.00,Wunderground v.1.15,2013-04-19 16:40:00,
2013-04-19 12:45:00,69.6,59.4,29.80,SW,221,5.0,5.0,70,0.00,,,0.00,Wunderground v.1.15,2013-04-19 16:45:00,
2013-04-19 12:55:00,70.4,59.7,29.78,SE,136,4.0,5.0,69,0.00,,,0.00,Wunderground v.1.15,2013-04-19 16:55:00,
2013-04-19 13:00:00,70.4,59.7,29.78,SE,144,4.0,5.0,69,0.00,,,0.00,Wunderground v.1.15,2013-04-19 17:00:00,
2013-04-19 13:05:00,70.1,59.5,29.78,SSE,165,4.0,5.0,69,0.00,,,0.00,Wunderground v.1.15,2013-04-19 17:05:00,
2013-04-19 13:10:00,69.4,59.2,29.78,SSE,164,5.0,6.0,70,0.00,,,0.00,Wunderground v.1.15,2013-04-19 17:10:00,
2013-04-19 13:15:00,69.1,59.3,29.78,South,169,5.0,6.0,71,0.00,,,0.00,Wunderground v.1.15,2013-04-19 17:15:00,
2013-04-19 13:20:00,68.9,59.1,29.77,SSW,213,5.0,5.0,71,0.00,,,0.00,Wunderground v.1.15,2013-04-19 17:20:00,
2013-04-19 13:30:00,68.8,59.4,29.77,SSE,159,3.0,5.0,72,0.00,,,0.00,Wunderground v.1.15,2013-04-19 17:30:00,
2013-04-19 13:35:00,69.1,59.3,29.76,SSE,155,3.0,5.0,71,0.00,,,0.00,Wunderground v.1.15,2013-04-19 17:35:00,
2013-04-19 13:40:00,69.9,60.1,29.76,West,262,3.0,5.0,71,0.00,,,0.00,Wunderground v.1.15,2013-04-19 17:40:00,
2013-04-19 13:45:00,70.3,59.6,29.76,SSE,159,3.0,5.0,69,0.00,,,0.00,Wunderground v.1.15,2013-04-19 17:45:00,
2013-04-19 13:50:00,70.3,59.6,29.76,SSE,159,4.0,5.0,69,0.00,,,0.00,Wunderground v.1.15,2013-04-19 17:50:00,
2013-04-19 14:00:00,69.6,59.8,29.76,SE,143,5.0,5.0,71,0.00,,,0.00,Wunderground v.1.15,2013-04-19 18:00:00,
2013-04-19 14:05:00,69.3,60.3,29.76,SSE,162,4.0,5.0,73,0.00,,,0.00,Wunderground v.1.15,2013-04-19 18:05:00,
2013-04-19 14:15:00,68.9,62.1,29.76,SSE,164,3.0,5.0,79,0.00,,,0.00,Wunderground v.1.15,2013-04-19 18:15:00,
2013-04-19 14:20:00,69.6,62.4,29.75,SSE,148,3.0,6.0,78,0.00,,,0.00,Wunderground v.1.15,2013-04-19 18:20:00,
2013-04-19 14:25:00,70.8,62.1,29.75,SE,138,3.0,6.0,74,0.00,,,0.00,Wunderground v.1.15,2013-04-19 18:25:00,
2013-04-19 14:35:00,71.3,61.8,29.73,South,169,3.0,7.0,72,0.00,,,0.00,Wunderground v.1.15,2013-04-19 18:35:00,
2013-04-19 14:40:00,70.9,61.4,29.73,SSE,156,4.0,7.0,72,0.00,,,0.00,Wunderground v.1.15,2013-04-19 18:40:00,
2013-04-19 14:45:00,70.6,61.1,29.73,SSW,195,5.0,7.0,72,0.00,,,0.00,Wunderground v.1.15,2013-04-19 18:45:00,
2013-04-19 14:50:00,70.9,61.4,29.72,SW,225,4.0,5.0,72,0.00,,,0.00,Wunderground v.1.15,2013-04-19 18:50:00,
2013-04-19 14:55:00,71.1,61.6,29.72,SSE,163,3.0,7.0,72,0.00,,,0.00,Wunderground v.1.15,2013-04-19 18:55:00,
2013-04-19 15:00:00,71.1,60.8,29.72,SSE,164,5.0,9.0,70,0.00,,,0.00,Wunderground v.1.15,2013-04-19 19:00:00,
2013-04-19 15:05:00,70.8,60.9,29.72,SSW,209,5.0,9.0,71,0.00,,,0.00,Wunderground v.1.15,2013-04-19 19:05:00,
2013-04-19 15:10:00,70.4,60.9,29.72,SSW,204,5.0,5.0,72,0.00,,,0.00,Wunderground v.1.15,2013-04-19 19:10:00,
2013-04-19 15:15:00,70.4,60.5,29.72,South,178,4.0,5.0,71,0.00,,,0.00,Wunderground v.1.15,2013-04-19 19:15:00,
2013-04-19 15:25:00,70.6,60.3,29.71,SSE,155,3.0,4.0,70,0.00,,,0.00,Wunderground v.1.15,2013-04-19 19:25:00,
2013-04-19 15:30:00,70.8,60.5,29.71,South,169,3.0,5.0,70,0.00,,,0.00,Wunderground v.1.15,2013-04-19 19:30:00,
2013-04-19 15:35:00,71.3,60.6,29.69,SE,134,4.0,9.0,69,0.00,,,0.00,Wunderground v.1.15,2013-04-19 19:35:00,
2013-04-19 15:45:00,71.8,60.7,29.69,South,171,4.0,5.0,68,0.00,,,0.00,Wunderground v.1.15,2013-04-19 19:45:00,
2013-04-19 15:50:00,71.6,60.9,29.65,SSE,148,4.0,5.0,69,0.00,,,0.00,Wunderground v.1.15,2013-04-19 19:50:00,
2013-04-19 15:55:00,71.6,60.9,29.65,South,171,4.0,10.0,69,0.00,,,0.00,Wunderground v.1.15,2013-04-19 19:55:00,
2013-04-19 16:00:00,71.1,60.8,29.65,SSW,212,4.0,4.0,70,0.00,,,0.00,Wunderground v.1.15,2013-04-19 20:00:00,
2013-04-19 16:05:00,70.1,59.9,29.66,South,185,5.0,5.0,70,0.00,,,0.00,Wunderground v.1.15,2013-04-19 20:05:00,
2013-04-19 16:15:00,69.3,59.9,29.66,SSE,168,3.0,9.0,72,0.00,,,0.00,Wunderground v.1.15,2013-04-19 20:15:00,
2013-04-19 16:20:00,68.6,59.6,29.66,SSW,194,4.0,6.0,73,0.00,,,0.00,Wunderground v.1.15,2013-04-19 20:20:00,
2013-04-19 16:30:00,67.9,59.7,29.66,SW,236,4.0,6.0,75,0.00,,,0.00,Wunderground v.1.15,2013-04-19 20:30:00,
2013-04-19 16:35:00,67.6,59.8,29.66,SSE,150,4.0,6.0,76,0.00,,,0.00,Wunderground v.1.15,2013-04-19 20:35:00,
2013-04-19 16:40:00,67.3,59.5,29.66,WSW,243,3.0,7.0,76,0.00,,,0.00,Wunderground v.1.15,2013-04-19 20:40:00,
2013-04-19 16:50:00,66.8,59.4,29.65,SSW,205,3.0,3.0,77,0.00,,,0.00,Wunderground v.1.15,2013-04-19 20:50:00,
2013-04-19 16:55:00,66.6,59.5,29.65,South,179,2.0,5.0,78,0.00,,,0.00,Wunderground v.1.15,2013-04-19 20:55:00,
2013-04-19 17:00:00,66.3,58.9,29.65,SSE,159,2.0,6.0,77,0.00,,,0.00,Wunderground v.1.15,2013-04-19 21:00:00,
2013-04-19 17:05:00,66.1,59.0,29.65,WSW,240,3.0,6.0,78,0.00,,,0.00,Wunderground v.1.15,2013-04-19 21:05:00,
2013-04-19 17:10:00,66.1,59.0,29.65,ESE,105,2.0,5.0,78,0.00,,,0.00,Wunderground v.1.15,2013-04-19 21:10:00,
2013-04-19 17:15:00,66.4,59.3,29.65,SW,234,2.0,5.0,78,0.00,,,0.00,Wunderground v.1.15,2013-04-19 21:15:00,
2013-04-19 17:25:00,67.8,60.0,29.63,South,178,2.0,5.0,76,0.00,,,0.00,Wunderground v.1.15,2013-04-19 21:25:00,
2013-04-19 17:30:00,68.1,59.9,29.63,WSW,240,3.0,5.0,75,0.00,,,0.00,Wunderground v.1.15,2013-04-19 21:30:00,
2013-04-19 17:35:00,68.1,59.5,29.65,SSW,192,4.0,5.0,74,0.00,,,0.00,Wunderground v.1.15,2013-04-19 21:35:00,
2013-04-19 17:45:00,67.6,59.0,29.65,SE,140,4.0,6.0,74,0.00,,,0.00,Wunderground v.1.15,2013-04-19 21:45:00,
2013-04-19 17:50:00,67.3,58.7,29.65,South,186,3.0,5.0,74,0.00,,,0.00,Wunderground v.1.15,2013-04-19 21:50:00,
2013-04-19 18:00:00,67.1,58.9,29.65,SSE,167,3.0,5.0,75,0.00,,,0.00,Wunderground v.1.15,2013-04-19 22:00:00,
2013-04-19 18:05:00,67.1,59.3,29.64,South,171,3.0,5.0,76,0.00,,,0.00,Wunderground v.1.15,2013-04-19 22:05:00,
2013-04-19 18:10:00,67.3,59.1,29.64,SW,236,3.0,3.0,75,0.00,,,0.00,Wunderground v.1.15,2013-04-19 22:10:00,
2013-04-19 18:15:00,66.9,58.7,29.64,SSE,168,3.0,5.0,75,0.00,,,0.00,Wunderground v.1.15,2013-04-19 22:15:00,
2013-04-19 18:20:00,66.4,58.6,29.65,SSW,203,4.0,5.0,76,0.00,,,0.00,Wunderground v.1.15,2013-04-19 22:20:00,
2013-04-19 18:25:00,66.1,58.7,29.65,South,173,4.0,5.0,77,0.00,,,0.00,Wunderground v.1.15,2013-04-19 22:25:00,
2013-04-19 18:30:00,65.8,58.4,29.65,SSE,164,3.0,5.0,77,0.00,,,0.00,Wunderground v.1.15,2013-04-19 22:30:00,
2013-04-19 18:35:00,65.6,58.6,29.64,SE,144,3.0,6.0,78,0.00,,,0.00,Wunderground v.1.15,2013-04-19 22:35:00,
2013-04-19 18:40:00,65.5,58.5,29.64,SSE,161,3.0,3.0,78,0.00,,,0.00,Wunderground v.1.15,2013-04-19 22:40:00,
2013-04-19 18:45:00,65.2,58.5,29.64,SE,138,4.0,4.0,79,0.00,,,0.00,Wunderground v.1.15,2013-04-19 22:45:00,
2013-04-19 18:50:00,65.0,58.7,29.63,SSW,197,4.0,4.0,80,0.00,,,0.00,Wunderground v.1.15,2013-04-19 22:50:00,
2013-04-19 19:00:00,64.7,58.4,29.63,SW,220,3.0,3.0,80,0.00,,,0.00,Wunderground v.1.15,2013-04-19 23:00:00,
2013-04-19 19:05:00,64.5,58.5,29.63,SSE,164,3.0,5.0,81,0.00,,,0.00,Wunderground v.1.15,2013-04-19 23:05:00,
2013-04-19 19:15:00,64.3,58.3,29.63,SSE,156,3.0,5.0,81,0.00,,,0.00,Wunderground v.1.15,2013-04-19 23:15:00,
2013-04-19 19:20:00,64.2,58.2,29.62,SSE,165,3.0,6.0,81,0.00,,,0.00,Wunderground v.1.15,2013-04-19 23:20:00,
2013-04-19 19:25:00,64.3,58.3,29.62,South,176,3.0,6.0,81,0.00,,,0.00,Wunderground v.1.15,2013-04-19 23:25:00,
2013-04-19 19:30:00,64.3,58.3,29.62,WSW,240,4.0,5.0,81,0.00,,,0.00,Wunderground v.1.15,2013-04-19 23:30:00,
2013-04-19 19:40:00,64.5,58.5,29.62,SSE,157,4.0,7.0,81,0.00,,,0.00,Wunderground v.1.15,2013-04-19 23:40:00,
2013-04-19 19:45:00,64.5,58.5,29.62,SSW,204,4.0,7.0,81,0.00,,,0.00,Wunderground v.1.15,2013-04-19 23:45:00,
2013-04-19 19:50:00,64.5,58.5,29.62,SSE,160,4.0,7.0,81,0.00,,,0.00,Wunderground v.1.15,2013-04-19 23:50:00,
2013-04-19 19:55:00,64.5,58.9,29.62,South,177,4.0,7.0,82,0.00,,,0.00,Wunderground v.1.15,2013-04-19 23:55:00,
2013-04-19 20:05:00,64.0,58.7,29.61,South,175,4.0,5.0,83,0.00,,,0.00,Wunderground v.1.15,2013-04-20 00:05:00,
2013-04-19 20:15:00,63.7,58.8,29.61,South,179,4.0,5.0,84,0.00,,,0.00,Wunderground v.1.15,2013-04-20 00:15:00,
2013-04-19 20:20:00,63.5,58.9,29.60,SSE,156,4.0,5.0,85,0.00,,,0.00,Wunderground v.1.15,2013-04-20 00:20:00,
2013-04-19 20:25:00,63.4,58.8,29.60,SSE,158,4.0,5.0,85,0.00,,,0.00,Wunderground v.1.15,2013-04-20 00:25:00,
2013-04-19 20:30:00,63.5,59.2,29.60,SSE,160,4.0,4.0,86,0.00,,,0.00,Wunderground v.1.15,2013-04-20 00:30:00,
2013-04-19 20:35:00,63.7,59.4,29.60,South,190,3.0,5.0,86,0.00,,,0.00,Wunderground v.1.15,2013-04-20 00:35:00,
2013-04-19 20:45:00,64.2,59.9,29.60,South,169,4.0,6.0,86,0.00,,,0.00,Wunderground v.1.15,2013-04-20 00:45:00,
2013-04-19 20:50:00,64.2,59.9,29.60,SSE,160,4.0,5.0,86,0.00,,,0.00,Wunderground v.1.15,2013-04-20 00:50:00,
2013-04-19 20:55:00,64.2,59.9,29.60,SSE,167,4.0,6.0,86,0.00,,,0.00,Wunderground v.1.15,2013-04-20 00:55:00,
2013-04-19 21:00:00,64.2,59.9,29.60,SE,139,4.0,6.0,86,0.00,,,0.00,Wunderground v.1.15,2013-04-20 01:00:00,
2013-04-19 21:05:00,64.2,60.2,29.61,South,170,4.0,6.0,87,0.00,,,0.00,Wunderground v.1.15,2013-04-20 01:05:00,
2013-04-19 21:10:00,64.2,60.2,29.61,SSW,211,3.0,5.0,87,0.00,,,0.00,Wunderground v.1.15,2013-04-20 01:10:00,
2013-04-19 21:20:00,64.2,60.2,29.61,South,169,3.0,5.0,87,0.00,,,0.00,Wunderground v.1.15,2013-04-20 01:20:00,
2013-04-19 21:25:00,64.2,60.2,29.61,SSE,163,3.0,5.0,87,0.00,,,0.00,Wunderground v.1.15,2013-04-20 01:25:00,
2013-04-19 21:35:00,64.3,60.3,29.61,SW,219,3.0,5.0,87,0.00,,,0.00,Wunderground v.1.15,2013-04-20 01:35:00,
2013-04-19 21:40:00,64.5,60.5,29.61,South,174,3.0,5.0,87,0.00,,,0.00,Wunderground v.1.15,2013-04-20 01:40:00,
2013-04-19 21:45:00,65.3,61.3,29.61,SSW,194,3.0,5.0,87,0.00,,,0.00,Wunderground v.1.15,2013-04-20 01:45:00,
2013-04-19 21:55:00,66.6,62.3,29.60,South,174,4.0,5.0,86,0.00,,,0.00,Wunderground v.1.15,2013-04-20 01:55:00,
2013-04-19 22:00:00,67.1,62.4,29.60,SSW,199,4.0,5.0,85,0.00,,,0.00,Wunderground v.1.15,2013-04-20 02:00:00,
2013-04-19 22:05:00,67.4,62.4,29.60,SSW,203,5.0,5.0,84,0.00,,,0.00,Wunderground v.1.15,2013-04-20 02:05:00,
2013-04-19 22:10:00,67.6,62.3,29.60,WSW,256,5.0,5.0,83,0.00,,,0.00,Wunderground v.1.15,2013-04-20 02:10:00,
2013-04-19 22:15:00,67.9,62.2,29.60,SW,236,5.0,5.0,82,0.00,,,0.00,Wunderground v.1.15,2013-04-20 02:15:00,
2013-04-19 22:25:00,68.1,62.4,29.60,SSW,207,6.0,8.0,82,0.00,,,0.00,Wunderground v.1.15,2013-04-20 02:25:00,
2013-04-19 22:30:00,68.1,62.4,29.60,SW,220,6.0,6.0,82,0.00,,,0.00,Wunderground v.1.15,2013-04-20 02:30:00,
2013-04-19 22:35:00,67.8,62.4,29.63,West,276,4.0,6.0,83,0.00,,,0.01,Wunderground v.1.15,2013-04-20 02:35:00,
2013-04-19 22:40:00,67.3,62.6,29.63,SW,215,3.0,3.0,85,5.10,,,0.04,Wunderground v.1.15,2013-04-20 02:40:00,
2013-04-19 22:45:00,66.6,62.6,29.63,SW,236,2.0,5.0,87,0.19,,,0.07,Wunderground v.1.15,2013-04-20 02:45:00,
2013-04-19 22:55:00,65.6,62.3,29.64,WNW,296,1.0,5.0,89,0.07,,,0.08,Wunderground v.1.15,2013-04-20 02:55:00,
2013-04-19 23:00:00,65.3,62.3,29.64,WNW,296,1.0,1.0,90,0.06,,,0.09,Wunderground v.1.15,2013-04-20 03:00:00,
2013-04-19 23:05:00,65.0,62.3,29.63,WNW,296,0.0,5.0,91,0.11,,,0.10,Wunderground v.1.15,2013-04-20 03:05:00,
2013-04-19 23:10:00,64.7,62.0,29.63,WNW,296,0.0,5.0,91,0.06,,,0.10,Wunderground v.1.15,2013-04-20 03:10:00,
2013-04-19 23:15:00,64.3,61.9,29.63,WNW,296,0.0,5.0,92,0.04,,,0.10,Wunderground v.1.15,2013-04-20 03:15:00,
2013-04-19 23:20:00,64.0,61.6,29.63,WNW,296,0.0,5.0,92,0.00,,,0.10,Wunderground v.1.15,2013-04-20 03:20:00,
2013-04-19 23:25:00,63.9,61.8,29.63,WNW,296,0.0,5.0,93,0.00,,,0.10,Wunderground v.1.15,2013-04-20 03:25:00,
2013-04-19 23:35:00,63.5,61.4,29.62,WNW,296,0.0,5.0,93,0.00,,,0.10,Wunderground v.1.15,2013-04-20 03:35:00,
2013-04-19 23:40:00,63.4,61.3,29.62,WNW,296,0.0,5.0,93,0.00,,,0.11,Wunderground v.1.15,2013-04-20 03:40:00,
2013-04-19 23:45:00,63.4,61.6,29.62,WNW,296,0.0,5.0,94,0.09,,,0.12,Wunderground v.1.15,2013-04-20 03:45:00,
2013-04-19 23:50:00,63.2,61.4,29.60,WNW,296,0.0,5.0,94,0.08,,,0.12,Wunderground v.1.15,2013-04-20 03:50:00,